Time;durP1;ratioP1;P1;durP2;ratioP2;P2;SDS_P1;SDS_P2;PMS_P1;PMS_P2;Temp;Humidity;BMP_temperature;BMP_pressure;BME280_temperature;BME280_humidity;BME280_pressure;Samples;Min_cycle;Max_cycle;Signal;HPM_P1;HPM_P2
2023/08/12 00:01:21;;;;;;;0.00;0.00;;;;;;;19.40;100.00;101621.25;5051903;28;20108;-50
2023/08/12 00:03:47;;;;;;;0.00;0.00;;;;;;;19.44;100.00;101617.78;5051877;28;20029;-50
2023/08/12 00:06:13;;;;;;;0.00;0.00;;;;;;;19.46;100.00;101617.78;5052662;28;20061;-51
2023/08/12 00:08:38;;;;;;;0.00;0.00;;;;;;;19.44;100.00;101627.38;5051732;28;20108;-50
2023/08/12 00:11:04;;;;;;;0.00;0.00;;;;;;;19.44;100.00;101633.47;5052237;28;20380;-47
2023/08/12 00:13:29;;;;;;;0.05;0.05;;;;;;;19.44;100.00;101619.53;5052134;28;20464;-50
2023/08/12 00:15:54;;;;;;;0.00;0.00;;;;;;;19.39;100.00;101625.63;5051895;28;20029;-51
2023/08/12 00:18:19;;;;;;;0.00;0.00;;;;;;;19.42;100.00;101623.00;5052064;28;20025;-51
2023/08/12 00:20:45;;;;;;;0.00;0.00;;;;;;;19.44;100.00;101616.94;5051975;28;20029;-51
2023/08/12 00:23:10;;;;;;;0.00;0.00;;;;;;;19.46;100.00;101615.19;5051749;28;20100;-51
2023/08/12 00:25:36;;;;;;;0.00;0.00;;;;;;;19.45;100.00;101598.63;5051644;28;20060;-51
2023/08/12 00:28:01;;;;;;;0.10;0.10;;;;;;;19.47;100.00;101599.53;5052330;28;20535;-51
2023/08/12 00:30:26;;;;;;;0.00;0.00;;;;;;;19.48;100.00;101598.63;5052680;28;20473;-51
2023/08/12 00:32:52;;;;;;;0.00;0.00;;;;;;;19.47;100.00;101596.91;5055666;28;20032;-51
2023/08/12 00:35:17;;;;;;;0.03;0.03;;;;;;;19.46;100.00;101594.25;5056208;28;20105;-50
2023/08/12 00:37:42;;;;;;;0.10;0.10;;;;;;;19.46;100.00;101589.03;5055232;28;20443;-49
2023/08/12 00:40:08;;;;;;;0.00;0.00;;;;;;;19.47;100.00;101581.22;5055617;28;20431;-51
2023/08/12 00:42:34;;;;;;;0.00;0.00;;;;;;;19.44;100.00;101580.34;5055555;28;20127;-50
2023/08/12 00:44:59;;;;;;;0.00;0.00;;;;;;;19.44;100.00;101581.19;5055008;28;20104;-49
2023/08/12 00:47:24;;;;;;;0.10;0.10;;;;;;;19.42;100.00;101586.41;5055193;28;20035;-50
2023/08/12 00:49:50;;;;;;;0.00;0.00;;;;;;;19.45;100.00;101576.84;5055782;28;20107;-50
2023/08/12 00:52:17;;;;;;;0.10;0.10;;;;;;;19.46;100.00;101576.84;5055218;28;20389;-49
2023/08/12 00:54:43;;;;;;;0.00;0.00;;;;;;;19.44;100.00;101573.34;5055290;28;20029;-50
2023/08/12 00:57:08;;;;;;;0.00;0.00;;;;;;;19.44;100.00;101575.97;5055597;28;20071;-50
2023/08/12 00:59:36;;;;;;;0.10;0.10;;;;;;;19.43;100.00;101574.22;5054710;28;20032;-48
2023/08/12 01:02:04;;;;;;;0.00;0.00;;;;;;;19.42;100.00;101575.09;5055370;28;20380;-50
2023/08/12 01:04:29;;;;;;;0.00;0.00;;;;;;;19.44;100.00;101572.50;5054468;28;20021;-51
2023/08/12 01:06:54;;;;;;;0.10;0.10;;;;;;;19.37;100.00;101569.84;5055299;28;20033;-47
2023/08/12 01:09:20;;;;;;;0.00;0.00;;;;;;;19.37;100.00;101571.59;5055361;28;20063;-51
2023/08/12 01:11:54;;;;;;;0.00;0.00;;;;;;;19.37;100.00;101564.63;5054473;28;20048;-50
2023/08/12 01:14:38;;;;;;;0.00;0.00;;;;;;;19.36;100.00;101560.25;5055047;28;20029;-51
2023/08/12 01:17:06;;;;;;;0.00;0.00;;;;;;;19.36;100.00;101560.25;5055419;28;20036;-53
2023/08/12 01:19:40;;;;;;;0.10;0.10;;;;;;;19.40;100.00;101551.53;5054237;28;20350;-51
2023/08/12 01:22:10;;;;;;;0.10;0.10;;;;;;;19.41;100.00;101549.81;5054916;28;20036;-51
2023/08/12 01:24:40;;;;;;;0.00;0.00;;;;;;;19.41;100.00;101549.81;5054801;28;20017;-50
2023/08/12 01:27:07;;;;;;;0.10;0.10;;;;;;;19.44;100.00;101548.97;5054370;28;20029;-51
2023/08/12 01:29:34;;;;;;;0.10;0.10;;;;;;;19.42;100.00;101541.13;5054593;28;20078;-50
2023/08/12 01:32:20;;;;;;;0.00;0.00;;;;;;;19.42;100.00;101541.97;5055103;28;20111;-50
2023/08/12 01:35:02;;;;;;;0.03;0.03;;;;;;;19.44;100.00;101533.28;5053913;28;20025;-51
2023/08/12 01:37:30;;;;;;;0.10;0.10;;;;;;;19.42;100.00;101536.75;5054471;28;20047;-50
2023/08/12 01:39:58;;;;;;;0.10;0.10;;;;;;;19.39;100.00;101526.28;5054121;28;20021;-49
2023/08/12 01:42:24;;;;;;;0.10;0.10;;;;;;;19.40;100.00;101522.78;5054170;28;20080;-51
2023/08/12 01:44:49;;;;;;;0.00;0.00;;;;;;;19.38;100.00;101521.94;5054386;28;20418;-51
2023/08/12 01:47:15;;;;;;;0.10;0.10;;;;;;;19.37;100.00;101528.00;5054214;28;20021;-51
2023/08/12 01:49:40;;;;;;;0.00;0.00;;;;;;;19.35;100.00;101524.53;5054012;28;20036;-49
2023/08/12 01:52:06;;;;;;;0.10;0.10;;;;;;;19.36;100.00;101526.25;5054402;28;20029;-51
2023/08/12 01:54:33;;;;;;;0.10;0.10;;;;;;;19.38;100.00;101529.78;5053811;28;20025;-50
2023/08/12 01:57:05;;;;;;;0.10;0.10;;;;;;;19.38;100.00;101523.66;5054298;28;20032;-50
2023/08/12 01:59:34;;;;;;;0.10;0.10;;;;;;;19.36;100.00;101514.94;5054105;28;20028;-50
2023/08/12 02:01:59;;;;;;;0.03;0.03;;;;;;;19.33;100.00;101510.59;5053836;28;20017;-50
2023/08/12 02:04:25;;;;;;;0.10;0.10;;;;;;;19.33;100.00;101514.94;5053772;28;20036;-50
2023/08/12 02:06:51;;;;;;;0.10;0.10;;;;;;;19.34;100.00;101512.34;5054431;28;20025;-51
2023/08/12 02:09:16;;;;;;;0.10;0.10;;;;;;;19.33;100.00;101509.72;5053625;28;20037;-50
2023/08/12 02:11:41;;;;;;;0.00;0.00;;;;;;;19.30;100.00;101509.69;5053811;28;20503;-51
2023/08/12 02:14:07;;;;;;;0.00;0.00;;;;;;;19.32;100.00;101508.84;5054299;28;20033;-50
2023/08/12 02:16:32;;;;;;;0.00;0.00;;;;;;;19.33;100.00;101510.59;5053276;28;20477;-51
2023/08/12 02:18:57;;;;;;;0.00;0.00;;;;;;;19.31;100.00;101507.06;5053787;28;20124;-51
2023/08/12 02:21:22;;;;;;;0.10;0.10;;;;;;;19.30;100.00;101505.34;5053698;28;20365;-49
2023/08/12 02:23:48;;;;;;;0.10;0.10;;;;;;;19.30;100.00;101507.06;5053219;28;20040;-51
2023/08/12 02:26:13;;;;;;;0.00;0.00;;;;;;;19.30;100.00;101502.75;5053773;28;20067;-51
2023/08/12 02:28:38;;;;;;;0.00;0.00;;;;;;;19.35;100.00;101498.41;5053460;28;20025;-50
2023/08/12 02:31:04;;;;;;;0.00;0.00;;;;;;;19.32;100.00;101501.00;5053402;28;20060;-50
2023/08/12 02:33:29;;;;;;;0.00;0.00;;;;;;;19.29;100.00;101495.75;5053429;28;20021;-51
2023/08/12 02:35:54;;;;;;;0.10;0.10;;;;;;;19.31;100.00;101490.53;5053532;28;20108;-50
2023/08/12 02:38:20;;;;;;;0.00;0.00;;;;;;;19.28;100.00;101494.00;5053238;28;20056;-50
2023/08/12 02:40:50;;;;;;;0.10;0.10;;;;;;;19.25;100.00;101486.19;5053304;28;20072;-50
2023/08/12 02:43:16;;;;;;;0.00;0.00;;;;;;;19.24;100.00;101480.06;5052915;28;20378;-51
2023/08/12 02:45:41;;;;;;;0.08;0.08;;;;;;;19.23;100.00;101482.66;5052747;28;20045;-51
2023/08/12 02:48:06;;;;;;;0.00;0.00;;;;;;;19.23;100.00;101477.44;5053416;28;20075;-49
2023/08/12 02:50:32;;;;;;;0.00;0.00;;;;;;;19.23;100.00;101467.00;5052435;28;20028;-50
2023/08/12 02:52:57;;;;;;;0.00;0.00;;;;;;;19.22;100.00;101467.84;5052646;28;20051;-50
2023/08/12 02:55:23;;;;;;;0.10;0.10;;;;;;;19.20;100.00;101469.59;5052931;28;20436;-51
2023/08/12 02:57:49;;;;;;;0.00;0.00;;;;;;;19.21;100.00;101458.25;5052827;28;20021;-50
2023/08/12 03:00:14;;;;;;;0.00;0.00;;;;;;;19.20;100.00;101462.63;5053129;28;20416;-50
2023/08/12 03:02:43;;;;;;;0.00;0.00;;;;;;;19.16;100.00;101460.88;5052849;28;20021;-49
2023/08/12 03:05:08;;;;;;;0.00;0.00;;;;;;;19.16;100.00;101454.75;5053063;28;20029;-50
2023/08/12 03:07:34;;;;;;;0.10;0.10;;;;;;;19.17;100.00;101448.66;5052646;28;20029;-50
2023/08/12 03:09:59;;;;;;;0.00;0.00;;;;;;;19.14;100.00;101451.28;5053111;28;20032;-50
2023/08/12 03:12:24;;;;;;;0.00;0.00;;;;;;;19.13;100.00;101449.53;5052423;28;20465;-51
2023/08/12 03:14:49;;;;;;;0.00;0.00;;;;;;;19.12;100.00;101453.00;5052748;28;20031;-51
2023/08/12 03:17:15;;;;;;;0.08;0.08;;;;;;;19.08;100.00;101442.56;5052871;28;20021;-51
2023/08/12 03:19:41;;;;;;;0.10;0.10;;;;;;;19.04;100.00;101440.81;5052021;28;20037;-51
2023/08/12 03:22:06;;;;;;;0.10;0.10;;;;;;;19.06;100.00;101449.50;5052836;28;20093;-51
2023/08/12 03:24:31;;;;;;;0.00;0.00;;;;;;;19.02;100.00;101437.31;5052815;28;20025;-51
2023/08/12 03:26:57;;;;;;;0.05;0.05;;;;;;;18.98;100.00;101443.38;5052392;28;20041;-49
2023/08/12 03:29:22;;;;;;;0.10;0.10;;;;;;;18.98;100.00;101430.31;5052541;28;20025;-47
2023/08/12 03:31:47;;;;;;;0.05;0.05;;;;;;;18.98;100.00;101422.50;5052996;28;20033;-51
2023/08/12 03:34:13;;;;;;;0.00;0.00;;;;;;;18.95;100.00;101425.06;5051871;28;20122;-51
2023/08/12 03:36:38;;;;;;;0.00;0.00;;;;;;;18.94;100.00;101420.72;5052564;28;20029;-51
2023/08/12 03:39:03;;;;;;;0.00;0.00;;;;;;;18.95;100.00;101421.59;5052430;28;20021;-49
2023/08/12 03:41:30;;;;;;;0.00;0.00;;;;;;;18.91;100.00;101420.69;5052314;28;20111;-48
2023/08/12 03:43:56;;;;;;;0.10;0.10;;;;;;;18.91;100.00;101415.47;5052628;28;20473;-51
2023/08/12 03:46:21;;;;;;;0.00;0.00;;;;;;;18.89;100.00;101409.38;5051942;28;20040;-50
2023/08/12 03:48:46;;;;;;;0.00;0.00;;;;;;;18.86;100.00;101417.16;5052102;28;20037;-49
2023/08/12 03:51:11;;;;;;;0.00;0.00;;;;;;;18.83;100.00;101423.25;5052864;28;20056;-50
2023/08/12 03:53:37;;;;;;;0.00;0.00;;;;;;;18.81;100.00;101418.88;5051971;28;20025;-50
2023/08/12 03:56:02;;;;;;;0.00;0.00;;;;;;;18.79;100.00;101411.03;5052452;28;20044;-51
2023/08/12 03:58:28;;;;;;;0.00;0.00;;;;;;;18.78;100.00;101411.03;5052283;28;20127;-51
2023/08/12 04:00:53;;;;;;;0.00;0.00;;;;;;;18.79;100.00;101407.56;5052126;28;20476;-51
2023/08/12 04:03:18;;;;;;;0.00;0.00;;;;;;;18.80;100.00;101409.28;5052193;28;20075;-49
2023/08/12 04:05:53;;;;;;;0.00;0.00;;;;;;;18.80;100.00;101406.69;5054276;28;20040;-50
2023/08/12 04:08:19;;;;;;;0.00;0.00;;;;;;;18.79;100.00;101404.97;5056000;28;20021;-50
2023/08/12 04:10:47;;;;;;;0.10;0.10;;;;;;;18.81;100.00;101400.59;5055983;28;20032;-51
2023/08/12 04:13:13;;;;;;;0.10;0.10;;;;;;;18.80;100.00;101404.06;5056346;28;20045;-49
2023/08/12 04:15:38;;;;;;;0.00;0.00;;;;;;;18.79;100.00;101394.53;5055451;28;20207;-51
2023/08/12 04:18:04;;;;;;;0.00;0.00;;;;;;;18.80;100.00;101391.03;5055963;28;20024;-50
2023/08/12 04:20:29;;;;;;;0.00;0.00;;;;;;;18.79;100.00;101390.16;5055915;28;20029;-48
2023/08/12 04:22:54;;;;;;;0.00;0.00;;;;;;;18.78;100.00;101379.72;5055790;28;20021;-50
2023/08/12 04:25:20;;;;;;;0.00;0.00;;;;;;;18.79;100.00;101376.25;5055853;28;20362;-50
2023/08/12 04:27:47;;;;;;;0.00;0.00;;;;;;;18.76;100.00;101377.97;5055736;28;20033;-51
2023/08/12 04:30:13;;;;;;;0.03;0.03;;;;;;;18.73;100.00;101377.06;5055239;28;20104;-49
2023/08/12 04:32:39;;;;;;;0.10;0.10;;;;;;;18.67;100.00;101388.38;5055951;28;20283;-51
2023/08/12 04:35:04;;;;;;;0.00;0.00;;;;;;;18.63;100.00;101390.94;5056073;28;20029;-45
2023/08/12 04:37:31;;;;;;;0.10;0.10;;;;;;;18.61;100.00;101383.13;5055029;28;20017;-50
2023/08/12 04:39:57;;;;;;;0.00;0.00;;;;;;;18.56;100.00;101387.44;5055853;28;20025;-51
2023/08/12 04:42:22;;;;;;;0.00;0.00;;;;;;;18.50;100.00;101390.00;5055123;28;20025;-48
2023/08/12 04:44:48;;;;;;;0.00;0.00;;;;;;;18.50;100.00;101390.00;5055330;28;20056;-50
2023/08/12 04:47:13;;;;;;;0.00;0.00;;;;;;;18.46;100.00;101378.69;5056057;28;20082;-51
2023/08/12 04:49:39;;;;;;;0.00;0.00;;;;;;;18.45;100.00;101376.06;5054904;28;20129;-50
2023/08/12 04:52:05;;;;;;;0.10;0.10;;;;;;;18.43;100.00;101369.09;5055453;28;20021;-51
2023/08/12 04:54:30;;;;;;;0.10;0.10;;;;;;;18.46;100.00;101369.97;5055513;28;20025;-49
2023/08/12 04:56:56;;;;;;;0.00;0.00;;;;;;;18.45;100.00;101365.63;5055225;28;20031;-51
2023/08/12 04:59:22;;;;;;;0.00;0.00;;;;;;;18.45;100.00;101370.84;5055354;28;20036;-51
2023/08/12 05:01:47;;;;;;;0.00;0.00;;;;;;;18.43;100.00;101369.09;5055548;28;20017;-49
2023/08/12 05:04:12;;;;;;;0.00;0.00;;;;;;;18.43;100.00;101363.00;5055050;28;20048;-49
2023/08/12 05:06:38;;;;;;;0.10;0.10;;;;;;;18.42;100.00;101367.38;5054876;28;20025;-50
2023/08/12 05:09:03;;;;;;;0.00;0.00;;;;;;;18.42;100.00;101363.88;5055251;28;20021;-51
2023/08/12 05:11:29;;;;;;;0.00;0.00;;;;;;;18.37;100.00;101353.44;5054454;28;20033;-51
2023/08/12 05:13:54;;;;;;;0.00;0.00;;;;;;;18.34;100.00;101358.59;5054949;28;20045;-51
2023/08/12 05:16:19;;;;;;;0.10;0.10;;;;;;;18.34;100.00;101360.34;5054694;28;20350;-50
2023/08/12 05:18:44;;;;;;;0.10;0.10;;;;;;;18.29;100.00;101355.09;5054372;28;20090;-48
2023/08/12 05:21:10;;;;;;;0.10;0.10;;;;;;;18.27;100.00;101346.41;5054936;28;20500;-50
2023/08/12 05:23:35;;;;;;;0.00;0.00;;;;;;;18.27;100.00;101354.22;5054824;28;20464;-50
2023/08/12 05:26:01;;;;;;;0.10;0.10;;;;;;;18.26;100.00;101355.94;5054467;28;20028;-51
2023/08/12 05:28:26;;;;;;;0.00;0.00;;;;;;;18.25;100.00;101348.13;5054305;28;20025;-51
2023/08/12 05:30:54;;;;;;;0.00;0.00;;;;;;;18.24;100.00;101346.38;5054947;28;20520;-51
2023/08/12 05:33:20;;;;;;;0.10;0.10;;;;;;;18.23;100.00;101355.94;5054179;28;20105;-50
2023/08/12 05:35:48;;;;;;;0.10;0.10;;;;;;;18.24;100.00;101335.94;5054728;28;20099;-51
2023/08/12 05:38:13;;;;;;;0.00;0.00;;;;;;;18.25;100.00;101332.47;5054885;28;20025;-46
2023/08/12 05:40:38;;;;;;;0.00;0.00;;;;;;;18.25;100.00;101340.28;5053776;28;20400;-51
2023/08/12 05:43:04;;;;;;;0.00;0.00;;;;;;;18.26;100.00;101344.66;5054469;28;20066;-52
2023/08/12 05:45:30;;;;;;;0.10;0.10;;;;;;;18.28;100.00;101345.53;5054212;28;20048;-51
2023/08/12 05:47:55;;;;;;;0.00;0.00;;;;;;;18.27;100.00;101346.41;5053861;28;20384;-46
2023/08/12 05:50:20;;;;;;;0.10;0.10;;;;;;;18.29;100.00;101338.59;5054624;28;20025;-48
2023/08/12 05:52:46;;;;;;;0.00;0.00;;;;;;;18.27;100.00;101333.38;5053777;28;20477;-51
2023/08/12 05:55:11;;;;;;;0.10;0.10;;;;;;;18.27;100.00;101341.19;5054386;28;20021;-49
2023/08/12 05:57:36;;;;;;;0.10;0.10;;;;;;;18.29;100.00;101338.59;5053982;28;20029;-51
2023/08/12 06:00:02;;;;;;;0.00;0.00;;;;;;;18.28;100.00;101337.69;5054069;28;20037;-51
2023/08/12 06:02:27;;;;;;;0.00;0.00;;;;;;;18.25;100.00;101327.25;5053995;28;20025;-47
2023/08/12 06:04:53;;;;;;;0.10;0.10;;;;;;;18.28;100.00;101327.25;5054395;28;20510;-51
2023/08/12 06:07:18;;;;;;;0.00;0.00;;;;;;;18.29;100.00;101334.22;5053909;28;20035;-51
2023/08/12 06:09:44;;;;;;;0.00;0.00;;;;;;;18.29;100.00;101330.75;5053514;28;20354;-50
2023/08/12 06:12:09;;;;;;;0.00;0.00;;;;;;;18.29;100.00;101338.59;5054120;28;20033;-46
2023/08/12 06:14:37;;;;;;;0.00;0.00;;;;;;;18.26;100.00;101332.47;5053231;28;20538;-49
2023/08/12 06:17:03;;;;;;;0.10;0.10;;;;;;;18.26;100.00;101322.03;5054159;28;20036;-51
2023/08/12 06:19:28;;;;;;;0.00;0.00;;;;;;;18.31;100.00;101321.19;5053811;28;20029;-46
2023/08/12 06:21:53;;;;;;;0.00;0.00;;;;;;;18.32;100.00;101307.28;5053236;28;20031;-48
2023/08/12 06:24:19;;;;;;;0.00;0.00;;;;;;;18.34;100.00;101311.63;5053772;28;20065;-51
2023/08/12 06:26:44;;;;;;;0.00;0.00;;;;;;;18.34;100.00;101306.41;5053643;28;20029;-49
2023/08/12 06:29:09;;;;;;;0.00;0.00;;;;;;;18.40;100.00;101305.59;5052323;28;20476;-46
2023/08/12 06:31:35;;;;;;;0.00;0.00;;;;;;;18.39;100.00;101309.06;5053302;28;20107;-46
2023/08/12 06:34:00;;;;;;;0.10;0.10;;;;;;;18.40;100.00;101301.22;5053595;28;20021;-46
2023/08/12 06:36:26;;;;;;;0.00;0.00;;;;;;;18.36;100.00;101309.91;5052740;28;20029;-49
2023/08/12 06:38:51;;;;;;;0.10;0.10;;;;;;;18.38;100.00;101299.47;5053684;28;20033;-49
2023/08/12 06:41:17;;;;;;;0.00;0.00;;;;;;;18.39;100.00;101299.47;5053614;28;20419;-46
2023/08/12 06:43:42;;;;;;;0.00;0.00;;;;;;;18.40;100.00;101296.00;5052902;28;20422;-51
2023/08/12 06:46:07;;;;;;;0.10;0.10;;;;;;;18.42;100.00;101290.78;5053481;28;20073;-45
2023/08/12 06:48:33;;;;;;;0.00;0.00;;;;;;;18.42;100.00;101288.19;5053174;28;20487;-45
2023/08/12 06:50:58;;;;;;;0.00;0.00;;;;;;;18.42;100.00;101283.84;5052714;28;20457;-50
2023/08/12 06:53:26;;;;;;;0.00;0.00;;;;;;;18.45;100.00;101284.72;5053006;28;20021;-47
2023/08/12 06:55:51;;;;;;;;;;;;;;;18.58;100.00;101286.53;5053721;28;20021;-51
2023/08/12 06:58:16;;;;;;;0.00;0.00;;;;;;;18.55;100.00;101286.50;5052887;28;20246;-49
2023/08/12 07:00:42;;;;;;;0.00;0.00;;;;;;;18.55;100.00;101283.88;5052964;28;20059;-49
2023/08/12 07:03:07;;;;;;;0.00;0.00;;;;;;;18.58;100.00;101279.56;5052499;28;20385;-49
2023/08/12 07:05:33;;;;;;;0.00;0.00;;;;;;;18.63;100.00;101278.69;5052638;28;20032;-50
2023/08/12 07:07:58;;;;;;;0.00;0.00;;;;;;;18.70;100.00;101281.31;5053187;28;20071;-51
2023/08/12 07:10:23;;;;;;;0.00;0.00;;;;;;;18.80;100.00;101279.63;5052154;28;20098;-48
2023/08/12 07:12:48;;;;;;;0.10;0.10;;;;;;;18.85;100.00;101287.44;5052723;28;20071;-49
2023/08/12 07:15:14;;;;;;;0.00;0.00;;;;;;;18.84;100.00;101275.28;5053271;28;20099;-49
2023/08/12 07:17:39;;;;;;;0.00;0.00;;;;;;;18.82;100.00;101277.00;5052122;28;20028;-50
2023/08/12 07:20:06;;;;;;;0.00;0.00;;;;;;;18.86;100.00;101273.53;5052867;28;20370;-47
2023/08/12 07:22:31;;;;;;;0.00;0.00;;;;;;;18.85;100.00;101271.78;5052821;28;20025;-48
2023/08/12 07:24:59;;;;;;;0.00;0.00;;;;;;;18.84;100.00;101272.66;5052293;28;20083;-46
2023/08/12 07:27:26;;;;;;;0.00;0.00;;;;;;;18.84;100.00;101270.06;5052147;28;20024;-49
2023/08/12 07:29:51;;;;;;;0.00;0.00;;;;;;;18.85;100.00;101277.00;5052721;28;20087;-49
2023/08/12 07:32:17;;;;;;;0.00;0.00;;;;;;;18.84;100.00;101283.97;5052415;28;20025;-48
2023/08/12 07:34:42;;;;;;;0.10;0.10;;;;;;;18.86;100.00;101277.03;5052405;28;20025;-47
2023/08/12 07:37:08;;;;;;;0.00;0.00;;;;;;;18.85;100.00;101272.66;5052896;28;20032;-50
2023/08/12 07:39:33;;;;;;;0.10;0.10;;;;;;;18.88;100.00;101272.66;5051686;28;20421;-51
2023/08/12 07:41:58;;;;;;;0.00;0.00;;;;;;;18.91;100.00;101282.28;5052607;28;20492;-49
2023/08/12 07:44:24;;;;;;;0.00;0.00;;;;;;;18.91;100.00;101282.28;5052535;28;20021;-51
2023/08/12 07:46:49;;;;;;;0.00;0.00;;;;;;;18.97;100.00;101279.69;5051765;28;20048;-50
2023/08/12 07:49:16;;;;;;;0.00;0.00;;;;;;;18.95;100.00;101284.03;5052494;28;20074;-49
2023/08/12 07:51:41;;;;;;;0.10;0.10;;;;;;;19.00;100.00;101269.22;5052382;28;20031;-48
2023/08/12 07:54:06;;;;;;;0.00;0.00;;;;;;;18.99;100.00;101270.13;5051820;28;20103;-49
2023/08/12 07:56:32;;;;;;;0.10;0.10;;;;;;;19.12;100.00;101267.50;5052058;28;20033;-47
2023/08/12 07:58:57;;;;;;;0.00;0.00;;;;;;;19.10;100.00;101272.72;5052632;28;20025;-50
2023/08/12 08:01:22;;;;;;;0.00;0.00;;;;;;;19.13;100.00;101270.13;5051568;28;20108;-49
2023/08/12 08:03:48;;;;;;;0.00;0.00;;;;;;;19.12;100.00;101272.72;5052569;28;20029;-50
2023/08/12 08:06:13;;;;;;;0.00;0.00;;;;;;;19.15;100.00;101275.38;5052495;28;20033;-49
2023/08/12 08:08:39;;;;;;;0.00;0.00;;;;;;;19.15;100.00;101276.22;5051366;28;20455;-47
2023/08/12 08:11:05;;;;;;;0.00;0.00;;;;;;;19.21;100.00;101288.41;5052223;28;20056;-48
2023/08/12 08:13:30;;;;;;;0.00;0.00;;;;;;;19.23;100.00;101281.47;5051644;28;20036;-47
2023/08/12 08:15:55;;;;;;;0.00;0.00;;;;;;;19.22;100.00;101287.53;5052272;28;20457;-50
2023/08/12 08:18:21;;;;;;;0.00;0.00;;;;;;;19.29;100.00;101294.53;5052135;28;20389;-50
2023/08/12 08:20:46;;;;;;;0.00;0.00;;;;;;;19.32;100.00;101294.53;5051625;28;20063;-51
2023/08/12 08:23:11;;;;;;;0.00;0.00;;;;;;;19.34;100.00;101297.13;5051889;28;20029;-49
2023/08/12 08:25:37;;;;;;;0.00;0.00;;;;;;;19.35;100.00;101299.78;5051750;28;20025;-50
2023/08/12 08:28:03;;;;;;;0.00;0.00;;;;;;;19.41;100.00;101298.88;5051637;28;20074;-50
2023/08/12 08:30:29;;;;;;;0.00;0.00;;;;;;;19.41;100.00;101299.75;5051541;28;20461;-48
2023/08/12 08:32:54;;;;;;;0.00;0.00;;;;;;;19.44;100.00;101295.41;5052139;28;20032;-45
2023/08/12 08:35:19;;;;;;;0.00;0.00;;;;;;;19.48;100.00;101311.06;5051665;28;20021;-46
2023/08/12 08:37:45;;;;;;;0.00;0.00;;;;;;;19.54;100.00;101304.97;5051904;28;20029;-47
2023/08/12 08:40:11;;;;;;;0.00;0.00;;;;;;;19.51;100.00;101304.97;5052180;28;20076;-50
2023/08/12 08:42:36;;;;;;;0.00;0.00;;;;;;;19.57;100.00;101312.81;5051161;28;20025;-50
2023/08/12 08:45:03;;;;;;;0.00;0.00;;;;;;;19.61;100.00;101311.94;5051871;28;20032;-48
2023/08/12 08:47:29;;;;;;;0.00;0.00;;;;;;;19.66;100.00;101311.94;5051807;28;20485;-50
2023/08/12 08:49:58;;;;;;;0.00;0.00;;;;;;;19.68;100.00;101323.28;5051346;28;20044;-49
2023/08/12 08:52:24;;;;;;;0.00;0.00;;;;;;;19.65;100.00;101313.69;5054461;28;20032;-48
2023/08/12 08:54:50;;;;;;;0.00;0.00;;;;;;;19.72;100.00;101323.28;5055591;28;20120;-47
2023/08/12 08:57:16;;;;;;;0.00;0.00;;;;;;;19.77;100.00;101322.38;5054921;28;20034;-51
2023/08/12 08:59:42;;;;;;;0.00;0.00;;;;;;;19.78;100.00;101318.91;5055212;28;20049;-47
2023/08/12 09:02:17;;;;;;;0.00;0.00;;;;;;;19.82;100.00;101329.41;5055777;28;20017;-46
2023/08/12 09:04:46;;;;;;;0.00;0.00;;;;;;;19.84;100.00;101318.94;5054342;28;20468;-52
2023/08/12 09:07:13;;;;;;;0.00;0.00;;;;;;;19.79;100.00;101325.88;5055355;28;20013;-50
2023/08/12 09:09:41;;;;;;;0.00;0.00;;;;;;;19.93;100.00;101324.16;5054289;28;20027;-49
2023/08/12 09:12:09;;;;;;;0.00;0.00;;;;;;;19.90;100.00;101329.41;5054969;28;20075;-51
2023/08/12 09:14:34;;;;;;;0.00;0.00;;;;;;;19.81;100.00;101329.38;5055131;28;20070;-50
2023/08/12 09:17:00;;;;;;;0.00;0.00;;;;;;;19.70;100.00;101340.72;5054670;28;20029;-47
2023/08/12 09:19:25;;;;;;;0.00;0.00;;;;;;;19.60;100.00;101340.72;5054638;28;20025;-51
2023/08/12 09:21:54;;;;;;;0.00;0.00;;;;;;;19.52;100.00;101338.97;5055179;28;20033;-50
2023/08/12 09:24:27;;;;;;;0.00;0.00;;;;;;;19.55;100.00;101345.94;5054387;28;20488;-50
2023/08/12 09:26:53;;;;;;;0.00;0.00;;;;;;;19.71;100.00;101363.34;5054942;28;20036;-46
2023/08/12 09:29:23;;;;;;;0.00;0.00;;;;;;;19.81;100.00;101373.84;5055088;28;20081;-51
2023/08/12 09:31:49;;;;;;;0.00;0.00;;;;;;;20.12;100.00;101366.00;5054562;28;20017;-49
2023/08/12 09:34:14;;;;;;;0.00;0.00;;;;;;;20.28;100.00;101370.31;5054780;28;20389;-51
2023/08/12 09:36:40;;;;;;;0.00;0.00;;;;;;;20.33;100.00;101365.94;5054481;28;20033;-50
2023/08/12 09:39:08;;;;;;;0.00;0.00;;;;;;;20.37;100.00;101365.06;5053941;28;20099;-50
2023/08/12 09:41:34;;;;;;;0.00;0.00;;;;;;;20.38;100.00;101361.56;5054303;28;20029;-51
2023/08/12 09:44:02;;;;;;;0.00;0.00;;;;;;;20.32;100.00;101369.44;5054877;28;20396;-50
2023/08/12 09:46:27;;;;;;;0.00;0.00;;;;;;;20.23;100.00;101369.44;5053523;28;20041;-50
2023/08/12 09:48:53;;;;;;;0.00;0.00;;;;;;;20.20;100.00;101374.69;5054617;28;20025;-46
2023/08/12 09:51:22;;;;;;;0.00;0.00;;;;;;;20.16;100.00;101372.97;5054421;28;20025;-52
2023/08/12 09:53:51;;;;;;;0.00;0.00;;;;;;;20.27;100.00;101373.81;5053531;28;20108;-49
2023/08/12 09:56:23;;;;;;;0.00;0.00;;;;;;;20.31;100.00;101383.41;5054639;28;20028;-46
2023/08/12 09:58:49;;;;;;;0.00;0.00;;;;;;;20.28;100.00;101374.69;5054037;28;20032;-46
2023/08/12 10:01:18;;;;;;;0.00;0.00;;;;;;;20.39;100.00;101376.38;5054179;28;20071;-49
2023/08/12 10:03:48;;;;;;;0.00;0.00;;;;;;;20.70;100.00;101376.31;5052858;28;20457;-49
2023/08/12 10:06:15;;;;;;;0.00;0.00;;;;;;;20.79;100.00;101385.03;5053931;28;20021;-50
2023/08/12 10:08:40;;;;;;;0.00;0.00;;;;;;;21.17;100.00;101381.34;5053830;28;20068;-49
2023/08/12 10:11:06;;;;;;;0.00;0.00;;;;;;;21.54;100.00;101387.22;5054055;28;20310;-46
2023/08/12 10:13:31;;;;;;;0.00;0.00;;;;;;;22.17;100.00;101384.97;5053087;28;20024;-47
2023/08/12 10:15:58;;;;;;;0.00;0.00;;;;;;;22.04;100.00;101398.19;5053782;28;20029;-49
2023/08/12 10:18:24;;;;;;;0.00;0.00;;;;;;;21.78;100.00;101401.06;5054373;28;20083;-47
2023/08/12 10:20:50;;;;;;;0.00;0.00;;;;;;;21.68;100.00;101395.00;5053604;28;20045;-50
2023/08/12 10:23:18;;;;;;;0.00;0.00;;;;;;;21.63;100.00;101395.94;5053960;28;20029;-46
2023/08/12 10:25:44;;;;;;;0.00;0.00;;;;;;;22.42;100.00;101397.84;5053385;28;20477;-46
2023/08/12 10:28:11;;;;;;;0.00;0.00;;;;;;;22.31;100.00;101401.44;5052995;28;20021;-51
2023/08/12 10:30:37;;;;;;;0.00;0.00;;;;;;;22.76;100.00;101402.69;5053519;28;20051;-46
2023/08/12 10:33:03;;;;;;;0.00;0.00;;;;;;;22.45;100.00;101396.06;5053662;28;20124;-46
2023/08/12 10:35:45;;;;;;;0.00;0.00;;;;;;;22.41;100.00;101391.72;5052832;28;20029;-47
2023/08/12 10:38:20;;;;;;;0.00;0.00;;;;;;;22.34;100.00;101382.16;5053744;28;20025;-50
2023/08/12 10:40:50;;;;;;;0.00;0.00;;;;;;;22.02;100.00;101383.34;5053281;28;20035;-49
2023/08/12 10:43:16;;;;;;;0.00;0.00;;;;;;;22.43;100.00;101389.09;5052701;28;20044;-52
2023/08/12 10:45:43;;;;;;;0.00;0.00;;;;;;;22.57;100.00;101391.53;5053091;28;20382;-48
2023/08/12 10:48:20;;;;;;;0.00;0.00;;;;;;;23.25;100.00;101390.69;5053049;28;20025;-50
2023/08/12 10:50:48;;;;;;;;;;;;;;;23.39;100.00;101401.88;5053340;28;20044;-51
2023/08/12 10:53:31;;;;;;;0.00;0.00;;;;;;;23.43;96.18;101397.44;5053362;28;19954;-46
2023/08/12 10:55:59;;;;;;;0.00;0.00;;;;;;;24.02;100.00;101393.91;5053105;28;20025;-50
2023/08/12 10:58:27;;;;;;;0.00;0.00;;;;;;;24.29;91.46;101398.63;5052717;28;20477;-46
2023/08/12 11:00:57;;;;;;;0.00;0.00;;;;;;;24.47;91.90;101394.78;5053398;28;20071;-51
2023/08/12 11:03:23;;;;;;;0.00;0.00;;;;;;;24.49;89.88;101397.38;5052379;28;20024;-48
2023/08/12 11:05:48;;;;;;;0.00;0.00;;;;;;;24.03;88.15;101406.13;5053096;28;20447;-50
2023/08/12 11:08:14;;;;;;;0.00;0.00;;;;;;;23.95;86.49;101399.25;5053113;28;20501;-51
2023/08/12 11:10:40;;;;;;;0.00;0.00;;;;;;;23.65;86.97;101401.47;5052183;28;20483;-49
2023/08/12 11:13:05;;;;;;;0.00;0.00;;;;;;;23.21;88.69;101402.16;5053012;28;20024;-51